createdAt,value
2023-05-01T00:01:42.601Z,14.33
2023-05-01T00:03:45.494Z,14.29
2023-05-01T00:05:48.516Z,14.40
2023-05-01T00:07:51.538Z,14.42
2023-05-01T00:09:54.875Z,14.46
2023-05-01T00:11:57.766Z,14.50
2023-05-01T00:14:00.569Z,14.56
2023-05-01T00:16:11.620Z,14.53
2023-05-01T00:18:14.502Z,14.58
2023-05-01T00:20:17.409Z,14.60
2023-05-01T00:22:20.161Z,14.62
2023-05-01T00:24:23.301Z,14.61
2023-05-01T00:26:30.642Z,14.65
2023-05-01T00:28:33.405Z,14.66
2023-05-01T00:30:36.266Z,14.63
2023-05-01T00:32:40.282Z,14.62
2023-05-01T00:34:43.333Z,14.59
2023-05-01T00:36:47.085Z,14.61
2023-05-01T00:38:51.304Z,14.59
2023-05-01T00:40:54.132Z,14.59
2023-05-01T00:42:57.302Z,14.58
2023-05-01T00:45:00.655Z,14.59
2023-05-01T00:47:04.603Z,14.57
2023-05-01T00:49:07.453Z,14.59
2023-05-01T00:51:11.355Z,14.62
2023-05-01T00:53:14.254Z,14.62
2023-05-01T00:55:17.188Z,14.61
2023-05-01T00:57:22.962Z,14.60
2023-05-01T00:59:26.012Z,14.60
2023-05-01T01:01:29.086Z,14.60
2023-05-01T01:03:31.862Z,14.60
2023-05-01T01:05:41.206Z,14.58
2023-05-01T01:08:16.638Z,14.60
2023-05-01T01:10:44.822Z,14.58
2023-05-01T01:13:12.323Z,14.55
2023-05-01T01:15:36.137Z,14.55
2023-05-01T01:18:08.414Z,14.53
2023-05-01T01:20:27.828Z,14.53
2023-05-01T01:22:31.949Z,14.54
2023-05-01T01:24:43.501Z,14.57
2023-05-01T01:26:58.949Z,14.56
2023-05-01T01:29:05.069Z,14.59
2023-05-01T01:31:14.051Z,14.61
2023-05-01T01:33:46.163Z,14.61
2023-05-01T01:35:57.816Z,14.59
2023-05-01T01:38:17.545Z,14.62
2023-05-01T01:40:26.343Z,14.60
2023-05-01T01:42:57.198Z,14.61
2023-05-01T01:45:05.633Z,14.59
2023-05-01T01:47:12.366Z,14.61
2023-05-01T01:49:23.597Z,14.64
2023-05-01T01:51:28.157Z,14.59
2023-05-01T01:53:33.358Z,14.55
2023-05-01T01:55:38.567Z,14.54
2023-05-01T01:57:45.029Z,14.55
2023-05-01T01:59:50.194Z,14.53
2023-05-01T02:01:55.487Z,14.54
2023-05-01T02:04:00.811Z,14.53
2023-05-01T02:06:05.034Z,14.53
2023-05-01T02:08:09.898Z,14.57
2023-05-01T02:10:14.466Z,14.54
2023-05-01T02:12:19.066Z,14.59
2023-05-01T02:14:24.998Z,14.66
2023-05-01T02:16:28.181Z,14.70
2023-05-01T02:18:32.078Z,14.73
2023-05-01T02:20:36.935Z,14.82
2023-05-01T02:22:46.294Z,14.84
2023-05-01T02:24:50.061Z,14.88
2023-05-01T02:26:58.277Z,14.94
2023-05-01T02:29:00.999Z,15.00
2023-05-01T02:31:03.743Z,15.08
2023-05-01T02:33:09.784Z,15.15
2023-05-01T02:35:12.721Z,15.25
2023-05-01T02:37:16.117Z,15.36
2023-05-01T02:39:19.174Z,15.47
2023-05-01T02:41:22.856Z,15.56
2023-05-01T02:43:27.924Z,15.69
2023-05-01T02:45:32.515Z,15.75
2023-05-01T02:47:39.659Z,15.90
2023-05-01T02:49:44.224Z,16.03
2023-05-01T02:51:48.431Z,16.13
2023-05-01T02:53:51.577Z,16.23
2023-05-01T02:55:58.068Z,16.32
2023-05-01T02:58:00.871Z,16.40
2023-05-01T03:00:04.600Z,16.48
2023-05-01T03:02:07.866Z,16.58
2023-05-01T03:04:10.678Z,16.67
2023-05-01T03:06:16.289Z,16.76
2023-05-01T03:08:19.087Z,16.81
2023-05-01T03:10:21.815Z,16.85
2023-05-01T03:12:24.540Z,16.89
2023-05-01T03:14:28.813Z,16.96
2023-05-01T03:16:31.955Z,16.99
2023-05-01T03:18:34.805Z,16.99
2023-05-01T03:20:37.503Z,17.00
2023-05-01T03:22:40.229Z,17.02
2023-05-01T03:24:44.176Z,17.06
2023-05-01T03:26:47.044Z,17.05
2023-05-01T03:28:49.765Z,17.08
2023-05-01T03:30:53.049Z,17.10
2023-05-01T03:32:55.763Z,17.13
2023-05-01T03:34:58.493Z,17.11
2023-05-01T03:37:01.269Z,17.15
2023-05-01T03:39:05.098Z,17.16
2023-05-01T03:41:08.032Z,17.18
2023-05-01T03:43:10.744Z,17.21
2023-05-01T03:45:13.556Z,17.30
2023-05-01T03:47:16.329Z,17.41
2023-05-01T03:49:19.006Z,17.54
2023-05-01T03:51:22.012Z,17.65
2023-05-01T03:53:24.996Z,17.79
2023-05-01T03:55:27.728Z,17.90
2023-05-01T03:57:30.444Z,18.03
2023-05-01T03:59:33.154Z,18.12
2023-05-01T04:01:35.967Z,18.19
2023-05-01T04:03:38.752Z,18.30
2023-05-01T04:05:41.616Z,18.31
2023-05-01T04:07:44.650Z,18.42
2023-05-01T04:09:48.604Z,18.52
2023-05-01T04:11:51.517Z,18.65
2023-05-01T04:13:54.380Z,18.74
2023-05-01T04:15:59.541Z,18.84
2023-05-01T04:18:02.550Z,18.88
2023-05-01T04:20:06.460Z,18.90
2023-05-01T04:22:09.118Z,18.98
2023-05-01T04:24:11.909Z,19.07
2023-05-01T04:26:14.896Z,19.19
2023-05-01T04:28:17.514Z,19.28
2023-05-01T04:30:20.335Z,19.36
2023-05-01T04:32:23.650Z,19.42
2023-05-01T04:34:29.513Z,19.50
2023-05-01T04:36:33.183Z,19.58
2023-05-01T04:38:37.522Z,19.57
2023-05-01T04:40:40.567Z,19.60
2023-05-01T04:42:43.683Z,19.65
2023-05-01T04:44:47.482Z,19.68
2023-05-01T04:46:50.332Z,19.67
2023-05-01T04:48:53.269Z,19.73
2023-05-01T04:50:56.057Z,19.78
2023-05-01T04:52:59.472Z,19.71
2023-05-01T04:55:03.982Z,19.70
2023-05-01T04:57:07.780Z,19.82
2023-05-01T04:59:10.533Z,19.98
2023-05-01T05:01:13.423Z,20.12
2023-05-01T05:03:19.215Z,20.20
2023-05-01T05:05:22.035Z,20.28
2023-05-01T05:07:25.379Z,20.41
2023-05-01T05:09:28.266Z,20.51
2023-05-01T05:11:31.342Z,20.59
2023-05-01T05:13:34.137Z,20.65
2023-05-01T05:15:37.305Z,20.74
2023-05-01T05:17:40.083Z,20.86
2023-05-01T05:19:42.718Z,21.03
2023-05-01T05:21:45.691Z,21.13
2023-05-01T05:23:48.448Z,21.23
2023-05-01T05:25:51.134Z,21.31
2023-05-01T05:27:54.430Z,21.38
2023-05-01T05:29:57.405Z,21.42
2023-05-01T05:32:00.346Z,21.49
2023-05-01T05:34:03.298Z,21.55
2023-05-01T05:36:06.495Z,21.61
2023-05-01T05:38:09.308Z,21.56
2023-05-01T05:40:12.473Z,21.61
2023-05-01T05:42:15.297Z,21.67
2023-05-01T05:44:17.952Z,21.79
2023-05-01T05:46:20.922Z,21.83
2023-05-01T05:48:23.801Z,21.89
2023-05-01T05:50:26.681Z,21.90
2023-05-01T05:52:29.450Z,21.97
2023-05-01T05:54:32.159Z,22.04
2023-05-01T05:56:35.111Z,22.11
2023-05-01T05:58:38.656Z,22.15
2023-05-01T06:00:41.980Z,22.27
2023-05-01T06:02:44.984Z,22.31
2023-05-01T06:04:48.123Z,22.41
2023-05-01T06:06:51.278Z,22.48
2023-05-01T06:08:54.112Z,22.57
2023-05-01T06:10:59.164Z,22.69
2023-05-01T06:13:04.857Z,22.78
2023-05-01T06:15:17.202Z,22.82
2023-05-01T06:17:20.109Z,22.83
2023-05-01T06:19:22.876Z,22.79
2023-05-01T06:21:25.596Z,22.77
2023-05-01T06:23:28.581Z,22.78
2023-05-01T06:25:31.361Z,22.82
2023-05-01T06:27:34.147Z,22.84
2023-05-01T06:29:37.108Z,22.88
2023-05-01T06:31:39.875Z,22.89
2023-05-01T06:33:42.764Z,22.98
2023-05-01T06:35:45.583Z,23.11
2023-05-01T06:37:48.453Z,23.16
2023-05-01T06:39:51.110Z,23.19
2023-05-01T06:41:53.822Z,23.29
2023-05-01T06:43:56.675Z,23.40
2023-05-01T06:45:59.762Z,23.48
2023-05-01T06:48:03.484Z,23.55
2023-05-01T06:50:07.747Z,23.62
2023-05-01T06:52:10.438Z,23.72
2023-05-01T06:54:13.277Z,23.79
2023-05-01T06:56:16.020Z,23.86
2023-05-01T06:58:24.022Z,23.93
2023-05-01T07:00:27.702Z,24.01
2023-05-01T07:02:30.665Z,24.00
2023-05-01T07:04:33.655Z,24.09
2023-05-01T07:06:36.612Z,24.21
2023-05-01T07:08:39.379Z,24.29
2023-05-01T07:10:42.416Z,24.35
2023-05-01T07:12:45.750Z,24.42
2023-05-01T07:14:48.468Z,24.47
2023-05-01T07:16:51.379Z,24.54
2023-05-01T07:18:54.294Z,24.56
2023-05-01T07:20:57.080Z,24.59
2023-05-01T07:22:59.953Z,24.66
2023-05-01T07:25:03.752Z,24.76
2023-05-01T07:27:06.782Z,24.84
2023-05-01T07:29:09.600Z,24.84
2023-05-01T07:31:12.742Z,24.83
2023-05-01T07:33:15.613Z,24.80
2023-05-01T07:35:18.411Z,24.83
2023-05-01T07:37:21.177Z,24.84
2023-05-01T07:39:23.870Z,24.87
2023-05-01T07:41:27.644Z,24.96
2023-05-01T07:43:31.660Z,25.02
2023-05-01T07:45:35.226Z,25.05
2023-05-01T07:47:38.176Z,25.16
2023-05-01T07:49:40.963Z,25.27
2023-05-01T07:51:44.983Z,25.26
2023-05-01T07:53:48.285Z,25.25
2023-05-01T07:55:51.247Z,25.25
2023-05-01T07:57:53.996Z,25.33
2023-05-01T07:59:57.440Z,25.36
2023-05-01T08:02:00.837Z,25.40
2023-05-01T08:04:04.058Z,25.49
2023-05-01T08:06:07.513Z,25.53
2023-05-01T08:08:10.470Z,25.51
2023-05-01T08:10:15.406Z,25.45
2023-05-01T08:12:18.437Z,25.53
2023-05-01T08:14:21.298Z,25.59
2023-05-01T08:16:24.135Z,25.63
2023-05-01T08:18:27.092Z,25.76
2023-05-01T08:20:29.968Z,25.85
2023-05-01T08:22:32.770Z,25.94
2023-05-01T08:24:35.985Z,26.02
2023-05-01T08:26:38.876Z,26.05
2023-05-01T08:28:42.518Z,26.08
2023-05-01T08:30:45.994Z,26.15
2023-05-01T08:32:48.765Z,26.19
2023-05-01T08:34:51.483Z,26.26
2023-05-01T08:36:54.384Z,26.31
2023-05-01T08:38:57.323Z,26.41
2023-05-01T08:41:01.891Z,26.51
2023-05-01T08:43:05.012Z,26.58
2023-05-01T08:45:12.112Z,26.64
2023-05-01T08:47:18.499Z,26.69
2023-05-01T08:49:23.023Z,26.76
2023-05-01T08:51:27.495Z,26.87
2023-05-01T08:53:32.381Z,26.88
2023-05-01T08:55:36.542Z,26.94
2023-05-01T08:57:40.341Z,26.99
2023-05-01T08:59:46.270Z,27.05
2023-05-01T09:01:49.755Z,27.09
2023-05-01T09:03:53.964Z,27.18
2023-05-01T09:05:57.435Z,27.32
2023-05-01T09:08:01.020Z,27.46
2023-05-01T09:10:04.495Z,27.55
2023-05-01T09:12:21.917Z,27.61
2023-05-01T09:14:24.879Z,27.75
2023-05-01T09:16:27.766Z,27.82
2023-05-01T09:18:31.579Z,27.88
2023-05-01T09:20:37.505Z,27.96
2023-05-01T09:22:40.673Z,28.05
2023-05-01T09:24:43.565Z,28.09
2023-05-01T09:26:46.671Z,28.14
2023-05-01T09:28:51.918Z,28.21
2023-05-01T09:30:54.689Z,28.23
2023-05-01T09:33:14.720Z,28.31
2023-05-01T09:35:18.344Z,28.41
2023-05-01T09:37:29.118Z,28.53
2023-05-01T09:39:32.111Z,28.54
2023-05-01T09:41:34.883Z,28.53
2023-05-01T09:43:39.108Z,28.62
2023-05-01T09:45:43.159Z,28.73
2023-05-01T09:47:47.121Z,28.75
2023-05-01T09:49:50.082Z,28.76
2023-05-01T09:51:52.878Z,28.82
2023-05-01T09:53:57.571Z,28.89
2023-05-01T09:56:02.129Z,28.87
2023-05-01T09:58:05.079Z,28.92
2023-05-01T10:00:11.211Z,28.82
2023-05-01T10:02:31.042Z,28.80
2023-05-01T10:04:35.367Z,28.75
2023-05-01T10:06:39.633Z,28.75
2023-05-01T10:08:49.282Z,28.88
2023-05-01T10:11:08.398Z,28.96
2023-05-01T10:13:15.868Z,29.10
2023-05-01T10:15:25.936Z,29.24
2023-05-01T10:17:29.608Z,29.34
2023-05-01T10:19:32.262Z,29.44
2023-05-01T10:21:35.509Z,29.54
2023-05-01T10:23:38.301Z,29.63
2023-05-01T10:25:42.520Z,29.79
2023-05-01T10:27:45.524Z,29.90
2023-05-01T10:29:51.131Z,29.77
2023-05-01T10:31:54.143Z,29.78
2023-05-01T10:33:57.327Z,29.82
2023-05-01T10:36:01.529Z,29.92
2023-05-01T10:38:10.636Z,30.07
2023-05-01T10:40:39.673Z,30.37
2023-05-01T10:43:13.247Z,30.41
2023-05-01T10:45:29.906Z,30.39
2023-05-01T10:47:34.938Z,30.40
2023-05-01T10:50:12.851Z,30.36
2023-05-01T10:52:15.975Z,30.34
2023-05-01T10:54:18.573Z,30.36
2023-05-01T10:56:34.048Z,30.31
2023-05-01T10:58:39.372Z,30.31
2023-05-01T11:00:42.548Z,30.37
2023-05-01T11:02:45.288Z,30.22
2023-05-01T11:04:52.217Z,30.20
2023-05-01T11:07:08.454Z,30.28
2023-05-01T11:09:39.291Z,30.45
2023-05-01T11:11:48.137Z,30.57
2023-05-01T11:14:04.420Z,30.57
2023-05-01T11:16:40.315Z,30.52
2023-05-01T11:18:46.859Z,30.66
2023-05-01T11:20:50.480Z,30.70
2023-05-01T11:22:54.796Z,30.83
2023-05-01T11:24:58.019Z,30.90
2023-05-01T11:27:01.991Z,30.78
2023-05-01T11:29:06.401Z,30.67
2023-05-01T11:31:10.843Z,30.72
2023-05-01T11:33:14.713Z,30.70
2023-05-01T11:35:28.451Z,30.69
2023-05-01T11:37:41.920Z,30.70
2023-05-01T11:39:49.697Z,30.66
2023-05-01T11:42:07.141Z,30.62
2023-05-01T11:44:12.776Z,30.64
2023-05-01T11:46:15.593Z,30.79
2023-05-01T11:48:18.371Z,30.77
2023-05-01T11:50:22.219Z,30.81
2023-05-01T11:52:25.011Z,30.84
2023-05-01T11:54:27.857Z,30.74
2023-05-01T11:56:31.817Z,30.52
2023-05-01T11:58:36.682Z,30.41
2023-05-01T12:00:42.128Z,30.29
2023-05-01T12:03:07.093Z,30.31
2023-05-01T12:05:18.897Z,30.37
2023-05-01T12:07:24.798Z,30.56
2023-05-01T12:09:28.888Z,30.80
2023-05-01T12:11:31.915Z,31.10
2023-05-01T12:13:35.360Z,31.44
2023-05-01T12:15:41.591Z,31.74
2023-05-01T12:17:46.683Z,31.86
2023-05-01T12:19:49.433Z,31.91
2023-05-01T12:22:06.835Z,32.00
2023-05-01T12:24:17.068Z,31.94
2023-05-01T12:26:24.050Z,32.03
2023-05-01T12:28:27.856Z,32.02
2023-05-01T12:30:31.015Z,31.67
2023-05-01T12:32:34.371Z,31.41
2023-05-01T12:34:37.346Z,31.20
2023-05-01T12:36:40.139Z,31.07
2023-05-01T12:39:19.156Z,31.18
2023-05-01T12:41:22.568Z,31.25
2023-05-01T12:43:33.120Z,31.23
2023-05-01T12:45:41.050Z,31.22
2023-05-01T12:47:43.780Z,31.12
2023-05-01T12:49:46.529Z,30.85
2023-05-01T12:51:50.575Z,30.65
2023-05-01T12:53:57.535Z,30.51
2023-05-01T12:56:01.465Z,30.41
2023-05-01T12:58:04.165Z,30.35
2023-05-01T13:00:07.726Z,30.63
2023-05-01T13:02:12.781Z,30.82
2023-05-01T13:04:22.950Z,30.91
2023-05-01T13:06:34.086Z,30.69
2023-05-01T13:08:40.205Z,30.45
2023-05-01T13:10:42.955Z,30.26
2023-05-01T13:12:46.510Z,30.13
2023-05-01T13:14:50.047Z,30.04
2023-05-01T13:16:54.348Z,29.88
2023-05-01T13:18:57.437Z,29.85
2023-05-01T13:21:10.615Z,29.84
2023-05-01T13:23:13.535Z,29.90
2023-05-01T13:25:18.193Z,29.90
2023-05-01T13:27:22.583Z,30.01
2023-05-01T13:29:26.969Z,30.21
2023-05-01T13:31:30.299Z,30.49
2023-05-01T13:33:33.250Z,30.42
2023-05-01T13:35:36.269Z,30.26
2023-05-01T13:37:40.573Z,30.07
2023-05-01T13:39:44.782Z,29.96
2023-05-01T13:41:47.637Z,29.90
2023-05-01T13:43:52.422Z,29.87
2023-05-01T13:45:58.782Z,29.76
2023-05-01T13:48:03.251Z,29.75
2023-05-01T13:50:09.773Z,29.65
2023-05-01T13:52:17.343Z,29.59
2023-05-01T13:54:20.397Z,29.60
2023-05-01T13:56:23.133Z,29.95
2023-05-01T13:58:28.245Z,30.36
2023-05-01T14:00:30.942Z,30.64
2023-05-01T14:02:33.720Z,30.82
2023-05-01T14:04:36.663Z,31.01
2023-05-01T14:06:48.694Z,31.07
2023-05-01T14:08:52.342Z,30.71
2023-05-01T14:10:55.124Z,30.41
2023-05-01T14:12:59.297Z,30.20
2023-05-01T14:15:03.202Z,29.93
2023-05-01T14:17:09.632Z,29.73
2023-05-01T14:19:16.443Z,29.67
2023-05-01T14:21:19.712Z,29.70
2023-05-01T14:23:23.238Z,29.95
2023-05-01T14:25:30.890Z,30.25
2023-05-01T14:27:34.366Z,30.31
2023-05-01T14:29:43.881Z,30.35
2023-05-01T14:31:46.716Z,30.52
2023-05-01T14:34:01.749Z,30.66
2023-05-01T14:36:04.593Z,30.76
2023-05-01T14:38:13.135Z,30.61
2023-05-01T14:40:17.964Z,30.33
2023-05-01T14:42:20.747Z,30.06
2023-05-01T14:44:27.492Z,29.90
2023-05-01T14:46:32.411Z,29.93
2023-05-01T14:48:37.176Z,29.93
2023-05-01T14:50:41.363Z,29.93
2023-05-01T14:52:44.226Z,29.98
2023-05-01T14:54:47.026Z,30.08
2023-05-01T14:56:49.899Z,30.03
2023-05-01T14:58:52.728Z,29.91
2023-05-01T15:00:55.436Z,29.76
2023-05-01T15:02:59.116Z,29.64
2023-05-01T15:05:01.880Z,29.47
2023-05-01T15:07:04.922Z,29.25
2023-05-01T15:09:07.653Z,29.14
2023-05-01T15:11:13.222Z,29.01
2023-05-01T15:13:16.030Z,28.86
2023-05-01T15:15:18.781Z,28.79
2023-05-01T15:17:21.726Z,28.75
2023-05-01T15:19:24.992Z,28.76
2023-05-01T15:21:27.809Z,28.70
2023-05-01T15:23:31.827Z,28.67
2023-05-01T15:25:34.636Z,28.59
2023-05-01T15:27:37.495Z,28.53
2023-05-01T15:29:40.205Z,28.49
2023-05-01T15:31:43.787Z,28.36
2023-05-01T15:33:46.948Z,28.33
2023-05-01T15:35:51.246Z,28.21
2023-05-01T15:37:56.656Z,28.06
2023-05-01T15:39:59.836Z,27.93
2023-05-01T15:42:02.761Z,27.85
2023-05-01T15:44:10.999Z,27.73
2023-05-01T15:46:15.623Z,27.67
2023-05-01T15:48:18.734Z,27.58
2023-05-01T15:50:22.186Z,27.56
2023-05-01T15:52:25.027Z,27.38
2023-05-01T15:54:28.088Z,27.10
2023-05-01T15:56:34.985Z,26.75
2023-05-01T15:58:37.803Z,26.32
2023-05-01T16:00:40.549Z,25.74
2023-05-01T16:02:44.834Z,25.28
2023-05-01T16:04:48.258Z,24.89
2023-05-01T16:06:51.570Z,24.55
2023-05-01T16:08:54.651Z,24.22
2023-05-01T16:10:58.405Z,23.87
2023-05-01T16:13:01.076Z,23.63
2023-05-01T16:15:05.561Z,23.29
2023-05-01T16:17:09.854Z,22.95
2023-05-01T16:19:16.992Z,22.66
2023-05-01T16:21:20.082Z,22.34
2023-05-01T16:23:25.519Z,22.08
2023-05-01T16:25:28.271Z,21.85
2023-05-01T16:27:31.030Z,21.69
2023-05-01T16:29:34.800Z,21.50
2023-05-01T16:31:40.909Z,21.32
2023-05-01T16:33:44.342Z,21.13
2023-05-01T16:35:51.206Z,20.99
2023-05-01T16:37:55.044Z,20.91
2023-05-01T16:40:00.523Z,20.83
2023-05-01T16:42:03.432Z,20.78
2023-05-01T16:44:07.612Z,20.70
2023-05-01T16:46:10.813Z,20.62
2023-05-01T16:48:20.250Z,20.54
2023-05-01T16:50:23.049Z,20.43
2023-05-01T16:52:25.825Z,20.38
2023-05-01T16:54:36.434Z,20.33
2023-05-01T16:56:39.753Z,20.17
2023-05-01T16:58:44.050Z,20.07
2023-05-01T17:00:46.895Z,19.99
2023-05-01T17:02:50.330Z,19.89
2023-05-01T17:04:53.762Z,19.79
2023-05-01T17:06:56.808Z,19.71
2023-05-01T17:08:59.958Z,19.64
2023-05-01T17:11:06.667Z,19.58
2023-05-01T17:13:09.395Z,19.48
2023-05-01T17:15:12.319Z,19.38
2023-05-01T17:17:17.949Z,19.29
2023-05-01T17:19:20.651Z,19.21
2023-05-01T17:21:24.936Z,19.14
2023-05-01T17:23:29.115Z,19.08
2023-05-01T17:25:32.022Z,19.01
2023-05-01T17:27:34.978Z,18.96
2023-05-01T17:29:39.506Z,18.92
2023-05-01T17:31:42.260Z,18.85
2023-05-01T17:33:47.131Z,18.78
2023-05-01T17:35:49.959Z,18.70
2023-05-01T17:37:52.769Z,18.62
2023-05-01T17:39:57.149Z,18.54
2023-05-01T17:42:00.115Z,18.43
2023-05-01T17:44:02.962Z,18.38
2023-05-01T17:46:06.748Z,18.32
2023-05-01T17:48:09.733Z,18.26
2023-05-01T17:50:14.083Z,18.16
2023-05-01T17:52:17.439Z,18.08
2023-05-01T17:54:20.271Z,18.03
2023-05-01T17:56:23.125Z,17.95
2023-05-01T17:58:25.998Z,17.89
2023-05-01T18:00:29.063Z,17.80
2023-05-01T18:02:31.939Z,17.77
2023-05-01T18:04:36.091Z,17.71
2023-05-01T18:06:39.952Z,17.62
2023-05-01T18:08:43.706Z,17.62
2023-05-01T18:10:46.687Z,17.54
2023-05-01T18:12:53.285Z,17.49
2023-05-01T18:14:56.699Z,17.43
2023-05-01T18:17:00.131Z,17.35
2023-05-01T18:19:02.917Z,17.27
2023-05-01T18:21:05.941Z,17.25
2023-05-01T18:23:10.037Z,17.19
2023-05-01T18:25:15.449Z,17.14
2023-05-01T18:27:20.645Z,17.09
2023-05-01T18:29:23.695Z,17.05
2023-05-01T18:31:27.004Z,17.02
2023-05-01T18:33:30.176Z,17.00
2023-05-01T18:35:33.954Z,16.96
2023-05-01T18:37:37.088Z,16.93
2023-05-01T18:39:40.276Z,16.86
2023-05-01T18:41:43.145Z,16.82
2023-05-01T18:43:46.094Z,16.79
2023-05-01T18:45:48.899Z,16.75
2023-05-01T18:47:51.756Z,16.72
2023-05-01T18:49:54.577Z,16.68
2023-05-01T18:51:57.211Z,16.68
2023-05-01T18:54:03.613Z,16.64
2023-05-01T18:56:09.665Z,16.58
2023-05-01T18:58:12.784Z,16.57
2023-05-01T19:00:20.561Z,16.55
2023-05-01T19:02:23.811Z,16.49
2023-05-01T19:04:26.631Z,16.48
2023-05-01T19:06:29.599Z,16.42
2023-05-01T19:08:32.368Z,16.39
2023-05-01T19:10:37.403Z,16.34
2023-05-01T19:12:42.374Z,16.28
2023-05-01T19:14:45.299Z,16.24
2023-05-01T19:16:48.175Z,16.21
2023-05-01T19:18:50.928Z,16.17
2023-05-01T19:20:53.642Z,16.09
2023-05-01T19:22:56.368Z,16.05
2023-05-01T19:25:00.308Z,16.01
2023-05-01T19:27:03.614Z,15.99
2023-05-01T19:29:06.451Z,15.97
2023-05-01T19:31:09.539Z,15.94
2023-05-01T19:33:12.569Z,15.89
2023-05-01T19:35:15.676Z,15.84
2023-05-01T19:37:18.310Z,15.83
2023-05-01T19:39:21.075Z,15.79
2023-05-01T19:41:23.795Z,15.74
2023-05-01T19:43:26.631Z,15.69
2023-05-01T19:45:29.547Z,15.67
2023-05-01T19:47:32.321Z,15.63
2023-05-01T19:49:35.384Z,15.59
2023-05-01T19:51:38.189Z,15.56
2023-05-01T19:53:42.208Z,15.56
2023-05-01T19:55:47.176Z,15.51
2023-05-01T19:57:52.053Z,15.51
2023-05-01T19:59:55.757Z,15.53
2023-05-01T20:02:00.489Z,15.52
2023-05-01T20:04:04.338Z,15.46
2023-05-01T20:06:07.660Z,15.44
2023-05-01T20:08:10.430Z,15.46
2023-05-01T20:10:13.126Z,15.46
2023-05-01T20:12:15.959Z,15.43
2023-05-01T20:14:18.757Z,15.43
2023-05-01T20:16:21.532Z,15.45
2023-05-01T20:18:24.319Z,15.48
2023-05-01T20:20:27.084Z,15.49
2023-05-01T20:22:29.933Z,15.47
2023-05-01T20:24:32.676Z,15.47
2023-05-01T20:26:35.383Z,15.48
2023-05-01T20:28:38.046Z,15.49
2023-05-01T20:30:42.271Z,15.49
2023-05-01T20:32:45.475Z,15.49
2023-05-01T20:34:48.382Z,15.50
2023-05-01T20:36:51.249Z,15.46
2023-05-01T20:38:57.838Z,15.45
2023-05-01T20:41:01.007Z,15.42
2023-05-01T20:43:04.101Z,15.38
2023-05-01T20:45:07.915Z,15.29
2023-05-01T20:47:10.837Z,15.22
2023-05-01T20:49:15.905Z,15.13
2023-05-01T20:51:19.015Z,15.04
2023-05-01T20:53:21.739Z,14.99
2023-05-01T20:55:24.592Z,14.95
2023-05-01T20:57:28.000Z,14.94
2023-05-01T20:59:31.049Z,14.92
2023-05-01T21:01:34.047Z,14.89
2023-05-01T21:03:39.584Z,14.87
2023-05-01T21:05:42.369Z,14.85
2023-05-01T21:07:45.237Z,14.86
2023-05-01T21:09:48.149Z,14.84
2023-05-01T21:11:50.910Z,14.79
2023-05-01T21:13:53.649Z,14.76
2023-05-01T21:15:56.564Z,14.71
2023-05-01T21:17:59.843Z,14.73
2023-05-01T21:20:05.934Z,14.68
2023-05-01T21:22:16.031Z,14.62
2023-05-01T21:24:25.119Z,14.58
2023-05-01T21:26:29.353Z,14.54
2023-05-01T21:28:32.054Z,14.51
2023-05-01T21:30:35.968Z,14.48
2023-05-01T21:32:42.061Z,14.48
2023-05-01T21:34:44.847Z,14.48
2023-05-01T21:36:49.479Z,14.50
2023-05-01T21:38:52.192Z,14.49
2023-05-01T21:40:54.868Z,14.47
2023-05-01T21:42:57.593Z,14.49
2023-05-01T21:45:00.628Z,14.48
2023-05-01T21:47:03.576Z,14.48
2023-05-01T21:49:06.442Z,14.47
2023-05-01T21:51:09.115Z,14.50
2023-05-01T21:53:11.872Z,14.50
2023-05-01T21:55:23.308Z,14.48
2023-05-01T21:57:26.236Z,14.46
2023-05-01T21:59:39.054Z,14.44
2023-05-01T22:01:42.000Z,14.41
2023-05-01T22:03:47.674Z,14.39
2023-05-01T22:05:50.994Z,14.37
2023-05-01T22:07:54.621Z,14.38
2023-05-01T22:09:57.822Z,14.39
2023-05-01T22:12:00.852Z,14.36
2023-05-01T22:14:03.636Z,14.32
2023-05-01T22:16:06.925Z,14.28
2023-05-01T22:18:09.855Z,14.24
2023-05-01T22:20:13.206Z,14.22
2023-05-01T22:22:16.059Z,14.21
2023-05-01T22:24:19.132Z,14.22
2023-05-01T22:26:21.894Z,14.21
2023-05-01T22:28:24.861Z,14.13
2023-05-01T22:30:27.924Z,14.08
2023-05-01T22:32:30.819Z,14.02
2023-05-01T22:34:33.861Z,13.99
2023-05-01T22:36:36.676Z,13.93
2023-05-01T22:38:39.458Z,13.92
2023-05-01T22:40:42.252Z,13.92
2023-05-01T22:42:45.476Z,13.88
2023-05-01T22:44:48.587Z,13.89
2023-05-01T22:46:51.923Z,13.89
2023-05-01T22:48:54.676Z,13.85
2023-05-01T22:50:57.396Z,13.81
2023-05-01T22:53:00.673Z,13.82
2023-05-01T22:55:03.487Z,13.81
2023-05-01T22:57:07.220Z,13.77
2023-05-01T22:59:10.073Z,13.70
2023-05-01T23:01:13.181Z,13.73
2023-05-01T23:03:16.026Z,13.73
2023-05-01T23:05:19.093Z,13.75
2023-05-01T23:07:22.503Z,13.75
2023-05-01T23:09:25.280Z,13.74
2023-05-01T23:11:32.664Z,13.71
2023-05-01T23:13:36.124Z,13.73
2023-05-01T23:15:45.388Z,13.70
2023-05-01T23:17:48.224Z,13.72
2023-05-01T23:19:51.013Z,13.71
2023-05-01T23:22:10.200Z,13.64
2023-05-01T23:24:16.078Z,13.59
2023-05-01T23:26:31.092Z,13.54
2023-05-01T23:28:33.897Z,13.47
2023-05-01T23:30:37.192Z,13.41
2023-05-01T23:32:40.849Z,13.39
2023-05-01T23:34:43.949Z,13.35
2023-05-01T23:36:47.512Z,13.33
2023-05-01T23:38:50.255Z,13.31
2023-05-01T23:40:53.096Z,13.28
2023-05-01T23:42:55.979Z,13.30
2023-05-01T23:44:58.928Z,13.31
2023-05-01T23:47:01.865Z,13.35
2023-05-01T23:49:04.949Z,13.38
2023-05-01T23:51:07.739Z,13.39
2023-05-01T23:53:10.903Z,13.44
2023-05-01T23:55:13.625Z,13.41
2023-05-01T23:57:16.401Z,13.41
2023-05-01T23:59:19.239Z,13.46
